Time;durP1;ratioP1;P1;durP2;ratioP2;P2;SDS_P1;SDS_P2;PMS_P1;PMS_P2;Temp;Humidity;BMP_temperature;BMP_pressure;BME280_temperature;BME280_humidity;BME280_pressure;Samples;Min_cycle;Max_cycle;Signal;HPM_P1;HPM_P2
2023/04/19 00:01:31;;;;;;;10.68;7.60;;;8.40;99.90;;;;;;5005532;28;20042;-54
2023/04/19 00:03:57;;;;;;;9.88;6.90;;;8.10;99.90;;;;;;5004796;28;20113;-57
2023/04/19 00:06:23;;;;;;;11.32;8.43;;;8.10;99.90;;;;;;5005903;28;20038;-56
2023/04/19 00:08:49;;;;;;;10.82;8.52;;;8.10;99.90;;;;;;5005262;28;20049;-58
2023/04/19 00:11:15;;;;;;;11.13;8.60;;;8.00;99.90;;;;;;5003751;28;20042;-49
2023/04/19 00:13:40;;;;;;;12.10;7.90;;;8.00;99.90;;;;;;5004658;28;20444;-54
2023/04/19 00:16:06;;;;;;;11.93;8.20;;;8.00;99.90;;;;;;5005381;28;20069;-59
2023/04/19 00:18:32;;;;;;;10.73;9.00;;;8.00;99.90;;;;;;5004276;28;20037;-54
2023/04/19 00:20:58;;;;;;;10.50;8.60;;;7.90;99.90;;;;;;5005465;28;20118;-56
2023/04/19 00:23:24;;;;;;;11.40;8.45;;;7.90;99.90;;;;;;5004612;28;20046;-50
2023/04/19 00:25:50;;;;;;;10.82;8.88;;;7.90;99.90;;;;;;5004357;28;20489;-56
2023/04/19 00:28:15;;;;;;;12.13;9.15;;;8.00;99.90;;;;;;5004990;28;20137;-58
2023/04/19 00:30:41;;;;;;;13.38;9.80;;;7.80;99.90;;;;;;5003656;28;20726;-56
2023/04/19 00:33:11;;;;;;;11.73;9.05;;;7.70;99.90;;;;;;5004498;28;20049;-59
2023/04/19 00:35:39;;;;;;;14.15;9.65;;;7.60;99.90;;;;;;5004576;28;20061;-60
2023/04/19 00:38:05;;;;;;;13.38;9.30;;;7.60;99.90;;;;;;5005081;28;20046;-52
2023/04/19 00:40:31;;;;;;;11.13;8.93;;;7.50;99.90;;;;;;5005000;28;20048;-60
2023/04/19 00:42:57;;;;;;;12.43;9.70;;;7.50;99.90;;;;;;5007849;28;20111;-55
2023/04/19 00:45:24;;;;;;;13.73;9.95;;;7.40;99.90;;;;;;5008840;28;20655;-59
2023/04/19 00:47:50;;;;;;;13.00;10.30;;;7.40;99.90;;;;;;5007813;28;20053;-58
2023/04/19 00:50:16;;;;;;;13.20;9.98;;;7.40;99.90;;;;;;5008689;28;20512;-55
2023/04/19 00:52:42;;;;;;;12.27;10.20;;;7.40;99.90;;;;;;5008746;28;20053;-57
2023/04/19 00:55:09;;;;;;;12.38;9.63;;;7.30;99.90;;;;;;5008942;28;20053;-54
2023/04/19 00:57:36;;;;;;;16.00;10.10;;;7.30;99.90;;;;;;5008026;28;20092;-56
2023/04/19 01:00:05;;;;;;;13.18;10.45;;;7.30;99.90;;;;;;5008820;28;20119;-59
2023/04/19 01:02:31;;;;;;;13.73;10.45;;;7.20;99.90;;;;;;5008112;28;20508;-54
2023/04/19 01:04:57;;;;;;;14.65;10.35;;;7.20;99.90;;;;;;5009011;28;20038;-58
2023/04/19 01:07:22;;;;;;;13.20;10.90;;;7.20;99.90;;;;;;5085602;22;20069;-53
2023/04/19 01:09:48;;;;;;;14.55;11.43;;;7.30;99.90;;;;;;5007842;28;20053;-55
2023/04/19 01:12:14;;;;;;;13.80;11.45;;;7.10;99.90;;;;;;5022592;28;20045;-57
2023/04/19 01:14:40;;;;;;;16.63;11.75;;;7.10;99.90;;;;;;4988094;28;20637;-60
2023/04/19 01:17:07;;;;;;;14.63;11.50;;;7.00;99.90;;;;;;4988327;28;20043;-60
2023/04/19 01:19:33;;;;;;;13.90;11.10;;;7.10;99.90;;;;;;4987914;28;20598;-58
2023/04/19 01:22:01;;;;;;;14.73;11.45;;;7.00;99.90;;;;;;4988671;28;20057;-59
2023/04/19 01:24:27;;;;;;;14.23;11.30;;;7.00;99.90;;;;;;4989251;28;20093;-52
2023/04/19 01:26:53;;;;;;;15.93;11.73;;;6.90;99.90;;;;;;4987464;28;20078;-58
2023/04/19 01:29:20;;;;;;;16.30;10.90;;;6.90;99.90;;;;;;4987617;28;20508;-59
2023/04/19 01:31:50;;;;;;;15.32;10.82;;;6.80;99.90;;;;;;4986070;28;20042;-58
2023/04/19 01:34:16;;;;;;;17.60;12.50;;;6.80;99.90;;;;;;4987949;28;20042;-60
2023/04/19 01:36:41;;;;;;;18.20;12.55;;;6.80;99.90;;;;;;4987815;28;20121;-54
2023/04/19 01:39:07;;;;;;;15.18;11.57;;;6.80;99.90;;;;;;4986184;28;20050;-57
2023/04/19 01:41:33;;;;;;;15.52;12.27;;;6.80;99.90;;;;;;4987636;28;20043;-51
2023/04/19 01:43:59;;;;;;;13.70;11.57;;;6.70;99.90;;;;;;4988183;28;20547;-59
2023/04/19 01:46:25;;;;;;;14.88;11.48;;;6.70;99.90;;;;;;4987939;28;20101;-60
2023/04/19 01:48:50;;;;;;;13.70;10.68;;;6.70;99.90;;;;;;4987562;28;20528;-58
2023/04/19 01:51:16;;;;;;;15.35;11.52;;;6.70;99.90;;;;;;4986485;28;20057;-57
2023/04/19 01:53:42;;;;;;;13.15;10.35;;;6.70;99.90;;;;;;4987354;28;20315;-53
2023/04/19 01:56:08;;;;;;;16.10;11.07;;;6.60;99.90;;;;;;4987886;28;20532;-47
2023/04/19 01:58:33;;;;;;;15.00;11.82;;;6.50;99.90;;;;;;4985834;28;20043;-49
2023/04/19 02:00:59;;;;;;;15.63;11.98;;;6.50;99.90;;;;;;4987734;28;20700;-60
2023/04/19 02:03:25;;;;;;;13.85;11.07;;;6.50;99.90;;;;;;4987380;28;20104;-49
2023/04/19 02:05:50;;;;;;;14.50;10.70;;;6.50;99.90;;;;;;4987239;28;20042;-60
2023/04/19 02:08:16;;;;;;;14.13;10.30;;;6.50;99.90;;;;;;4987119;28;20050;-57
2023/04/19 02:10:42;;;;;;;13.82;9.73;;;6.70;99.90;;;;;;5002512;28;20062;-52
2023/04/19 02:13:07;;;;;;;11.88;9.00;;;6.50;99.90;;;;;;4986156;28;20047;-57
2023/04/19 02:15:36;;;;;;;11.45;9.20;;;6.60;99.90;;;;;;4987638;28;20047;-54
2023/04/19 02:18:05;;;;;;;15.52;9.38;;;6.50;99.90;;;;;;4987560;28;20125;-58
2023/04/19 02:20:32;;;;;;;11.60;8.50;;;6.40;99.90;;;;;;4986829;28;20070;-59
2023/04/19 02:22:57;;;;;;;13.30;8.65;;;6.40;99.90;;;;;;4987300;28;20104;-56
2023/04/19 02:25:23;;;;;;;13.88;9.40;;;6.40;99.90;;;;;;4987441;28;20509;-57
2023/04/19 02:27:48;;;;;;;13.45;9.32;;;6.40;99.90;;;;;;4985863;28;20448;-57
2023/04/19 02:30:14;;;;;;;13.00;9.10;;;6.70;99.90;;;;;;4986768;28;20066;-55
2023/04/19 02:32:40;;;;;;;11.80;9.20;;;6.40;99.90;;;;;;4987224;28;20525;-57
2023/04/19 02:35:06;;;;;;;13.30;8.85;;;6.40;99.90;;;;;;5001610;28;20050;-51
2023/04/19 02:37:32;;;;;;;11.57;9.30;;;6.40;99.90;;;;;;4987155;28;20580;-59
2023/04/19 02:39:57;;;;;;;10.60;8.80;;;6.70;99.90;;;;;;4987474;28;20069;-55
2023/04/19 02:42:23;;;;;;;11.73;8.68;;;6.30;99.90;;;;;;4986559;28;20596;-60
2023/04/19 02:44:48;;;;;;;14.52;8.65;;;6.20;99.90;;;;;;4986446;28;20495;-52
2023/04/19 02:47:14;;;;;;;11.70;9.10;;;6.60;99.90;;;;;;4987090;28;20092;-59
2023/04/19 02:49:41;;;;;;;11.98;8.43;;;6.20;99.90;;;;;;4985747;28;20050;-58
2023/04/19 02:52:07;;;;;;;11.45;8.80;;;6.20;99.90;;;;;;4985846;28;20109;-52
2023/04/19 02:54:33;;;;;;;11.23;8.27;;;6.20;99.90;;;;;;4987352;28;20046;-48
2023/04/19 02:56:59;;;;;;;11.50;8.73;;;6.20;99.90;;;;;;4985706;28;20378;-56
2023/04/19 02:59:25;;;;;;;10.88;8.65;;;6.10;99.90;;;;;;4987232;28;20133;-59
2023/04/19 03:01:51;;;;;;;11.23;8.43;;;6.40;99.90;;;;;;4986034;28;20117;-53
2023/04/19 03:04:17;;;;;;;10.90;8.65;;;6.00;99.90;;;;;;4985558;28;20043;-60
2023/04/19 03:06:43;;;;;;;12.52;9.07;;;5.90;99.90;;;;;;4987093;28;20062;-51
2023/04/19 03:09:09;;;;;;;14.68;8.88;;;5.90;99.90;;;;;;4985795;28;20543;-58
2023/04/19 03:11:35;;;;;;;11.75;8.40;;;5.80;99.90;;;;;;4986309;28;20054;-50
2023/04/19 03:14:01;;;;;;;12.32;8.88;;;5.80;99.90;;;;;;4986027;28;20049;-59
2023/04/19 03:16:29;;;;;;;13.90;8.82;;;5.80;99.90;;;;;;4986113;28;20492;-53
2023/04/19 03:18:54;;;;;;;11.90;9.60;;;5.70;99.90;;;;;;4984242;28;20048;-50
2023/04/19 03:21:20;;;;;;;14.43;9.48;;;5.70;99.90;;;;;;4986532;28;20138;-52
2023/04/19 03:23:46;;;;;;;11.85;8.73;;;5.70;99.90;;;;;;4986198;28;20439;-57
2023/04/19 03:26:11;;;;;;;10.85;8.85;;;5.70;99.90;;;;;;4985203;28;20046;-52
2023/04/19 03:28:37;;;;;;;13.18;9.20;;;5.60;99.90;;;;;;4985617;28;20071;-53
2023/04/19 03:31:03;;;;;;;14.68;9.55;;;5.50;99.90;;;;;;4986460;28;20550;-59
2023/04/19 03:33:28;;;;;;;11.82;8.27;;;5.50;99.90;;;;;;4985213;28;20682;-49
2023/04/19 03:35:54;;;;;;;10.90;7.65;;;5.40;99.90;;;;;;4986672;28;20830;-59
2023/04/19 03:38:19;;;;;;;12.10;8.75;;;5.40;99.90;;;;;;4986122;28;20505;-51
2023/04/19 03:40:46;;;;;;;10.52;7.97;;;5.70;99.90;;;;;;4985775;28;20050;-48
2023/04/19 03:43:12;;;;;;;11.85;8.43;;;5.70;99.90;;;;;;4984644;28;20112;-53
2023/04/19 03:45:37;;;;;;;9.68;8.02;;;5.40;99.90;;;;;;4986044;28;20493;-51
2023/04/19 03:48:03;;;;;;;11.00;8.32;;;5.30;99.90;;;;;;4984756;28;20050;-56
2023/04/19 03:50:29;;;;;;;12.27;8.35;;;5.30;99.90;;;;;;4985355;28;20503;-53
2023/04/19 03:52:54;;;;;;;11.20;8.52;;;5.30;99.90;;;;;;4985834;28;20078;-51
2023/04/19 03:55:20;;;;;;;12.00;9.02;;;5.20;99.90;;;;;;4985113;28;20120;-51
2023/04/19 03:57:45;;;;;;;13.38;8.05;;;5.20;99.90;;;;;;4984872;28;20422;-56
2023/04/19 04:00:12;;;;;;;11.65;8.90;;;5.20;99.90;;;;;;4984878;28;20134;-53
2023/04/19 04:02:38;;;;;;;12.73;8.65;;;5.10;99.90;;;;;;4985599;28;20049;-57
2023/04/19 04:05:05;;;;;;;11.25;8.30;;;5.10;99.90;;;;;;4985588;28;20046;-51
2023/04/19 04:07:31;;;;;;;13.05;8.52;;;5.10;99.90;;;;;;4984707;28;20184;-58
2023/04/19 04:09:56;;;;;;;11.65;8.10;;;5.00;99.90;;;;;;4985759;28;20129;-57
2023/04/19 04:12:22;;;;;;;12.65;8.45;;;5.20;99.90;;;;;;4998281;28;20551;-58
2023/04/19 04:14:48;;;;;;;10.02;8.30;;;4.90;99.90;;;;;;5004875;28;20500;-47
2023/04/19 04:17:13;;;;;;;12.05;7.88;;;4.90;99.90;;;;;;5004843;28;20445;-51
2023/04/19 04:19:39;;;;;;;10.55;7.72;;;4.90;99.90;;;;;;5004628;28;20091;-59
2023/04/19 04:22:05;;;;;;;12.07;8.05;;;4.90;99.90;;;;;;5004917;28;20048;-56
2023/04/19 04:24:37;;;;;;;10.25;8.05;;;4.90;99.90;;;;;;5003052;28;20114;-59
2023/04/19 04:27:03;;;;;;;9.75;7.57;;;4.90;99.90;;;;;;5001966;28;20057;-53
2023/04/19 04:29:31;;;;;;;10.63;8.05;;;4.90;99.90;;;;;;5004197;28;20045;-59
2023/04/19 04:31:56;;;;;;;9.05;7.20;;;4.80;99.90;;;;;;5003680;28;20046;-59
2023/04/19 04:34:23;;;;;;;9.55;7.50;;;4.80;99.90;;;;;;5004671;28;20065;-57
2023/04/19 04:36:49;;;;;;;11.77;7.55;;;4.80;99.90;;;;;;5005038;28;20049;-58
2023/04/19 04:39:15;;;;;;;12.52;7.78;;;4.70;99.90;;;;;;5002644;28;20129;-49
2023/04/19 04:41:41;;;;;;;10.60;7.72;;;4.70;99.90;;;;;;5004803;28;20318;-59
2023/04/19 04:44:07;;;;;;;11.02;7.90;;;4.90;99.90;;;;;;5004682;28;20125;-59
2023/04/19 04:46:34;;;;;;;10.00;7.65;;;4.90;99.90;;;;;;5004694;28;20046;-55
2023/04/19 04:48:59;;;;;;;10.50;7.68;;;4.70;99.90;;;;;;5004798;28;20064;-59
2023/04/19 04:51:26;;;;;;;11.38;7.85;;;4.70;99.90;;;;;;5005554;28;20046;-55
2023/04/19 04:53:51;;;;;;;9.98;7.72;;;4.70;99.90;;;;;;5003524;28;20077;-59
2023/04/19 04:56:17;;;;;;;14.07;8.18;;;4.70;99.90;;;;;;5001535;28;20092;-49
2023/04/19 04:58:42;;;;;;;12.13;6.90;;;4.80;99.90;;;;;;5004805;28;20469;-58
2023/04/19 05:01:08;;;;;;;9.65;7.68;;;4.70;99.90;;;;;;5004874;28;20103;-55
2023/04/19 05:03:34;;;;;;;9.15;6.95;;;4.80;99.90;;;;;;5004020;28;20069;-51
2023/04/19 05:05:59;;;;;;;9.43;6.32;;;4.80;99.90;;;;;;5004907;28;20558;-57
2023/04/19 05:08:25;;;;;;;11.63;7.22;;;4.80;99.90;;;;;;5004543;28;20058;-55
2023/04/19 05:10:51;;;;;;;8.80;6.72;;;4.80;99.90;;;;;;5004499;28;20049;-61
2023/04/19 05:13:17;;;;;;;10.45;7.22;;;4.90;99.90;;;;;;5003086;28;20036;-52
2023/04/19 05:15:42;;;;;;;12.45;6.82;;;5.20;99.90;;;;;;5005104;28;20042;-46
2023/04/19 05:18:08;;;;;;;10.05;6.45;;;4.90;99.90;;;;;;5004921;28;20097;-50
2023/04/19 05:20:34;;;;;;;10.25;6.43;;;4.90;99.90;;;;;;5003382;28;20065;-59
2023/04/19 05:23:02;;;;;;;10.32;6.75;;;4.90;99.90;;;;;;5004719;28;20048;-55
2023/04/19 05:25:28;;;;;;;13.90;6.45;;;5.00;99.90;;;;;;5004260;28;20100;-56
2023/04/19 05:27:54;;;;;;;9.85;5.10;;;5.20;99.90;;;;;;5004566;28;20408;-50
2023/04/19 05:30:20;;;;;;;8.07;5.80;;;5.40;99.90;;;;;;5006710;28;20061;-58
2023/04/19 05:32:46;;;;;;;8.15;6.20;;;5.50;99.90;;;;;;5007744;28;20125;-48
2023/04/19 05:35:12;;;;;;;8.48;5.72;;;5.60;99.90;;;;;;5007767;28;20053;-48
2023/04/19 05:37:38;;;;;;;9.90;5.65;;;5.80;99.90;;;;;;5007324;28;20042;-57
2023/04/19 05:40:04;;;;;;;9.93;6.15;;;6.10;99.90;;;;;;5007167;28;20104;-59
2023/04/19 05:42:30;;;;;;;9.65;6.50;;;6.50;99.90;;;;;;5005853;28;20046;-57
2023/04/19 05:44:56;;;;;;;8.02;5.75;;;7.10;99.90;;;;;;5007136;28;20045;-48
2023/04/19 05:47:22;;;;;;;9.05;5.55;;;8.00;99.90;;;;;;5007275;28;20045;-59
2023/04/19 05:49:47;;;;;;;7.22;5.53;;;8.00;99.90;;;;;;5007314;28;20132;-51
2023/04/19 05:52:13;;;;;;;6.72;5.55;;;8.70;99.90;;;;;;5007884;28;20081;-59
2023/04/19 05:54:39;;;;;;;10.07;6.10;;;8.50;99.90;;;;;;5006910;28;20081;-49
2023/04/19 05:57:04;;;;;;;8.40;5.75;;;8.70;99.90;;;;;;5006429;28;20549;-58
2023/04/19 05:59:30;;;;;;;8.27;5.10;;;9.00;99.90;;;;;;5007124;28;20472;-58
2023/04/19 06:01:56;;;;;;;7.72;4.88;;;9.20;99.90;;;;;;5005252;28;20052;-54
2023/04/19 06:04:21;;;;;;;7.25;4.70;;;9.40;99.90;;;;;;5007671;28;20076;-59
2023/04/19 06:06:47;;;;;;;7.43;5.13;;;9.70;99.90;;;;;;5007582;28;20477;-55
2023/04/19 06:09:13;;;;;;;7.00;5.25;;;10.00;99.90;;;;;;5006902;28;20061;-46
2023/04/19 06:11:39;;;;;;;8.52;5.43;;;10.10;99.90;;;;;;5004890;28;20081;-52
2023/04/19 06:14:05;;;;;;;6.72;4.93;;;10.30;99.90;;;;;;5006520;28;20038;-52
2023/04/19 06:16:31;;;;;;;8.57;5.43;;;10.40;99.90;;;;;;5005779;28;20050;-51
2023/04/19 06:18:56;;;;;;;8.32;5.32;;;10.40;99.90;;;;;;5005680;28;20125;-58
2023/04/19 06:21:22;;;;;;;8.70;5.07;;;10.50;99.90;;;;;;5006035;28;20037;-55
2023/04/19 06:23:48;;;;;;;7.68;4.57;;;10.70;99.90;;;;;;5006204;28;20195;-57
2023/04/19 06:26:13;;;;;;;7.65;4.85;;;10.90;99.90;;;;;;5005733;28;20045;-59
2023/04/19 06:28:39;;;;;;;9.48;4.70;;;11.00;99.90;;;;;;5006931;28;20104;-54
2023/04/19 06:31:05;;;;;;;7.43;4.80;;;11.00;99.90;;;;;;5007052;28;20121;-60
2023/04/19 06:33:30;;;;;;;7.65;4.75;;;11.20;99.90;;;;;;5006572;28;20046;-54
2023/04/19 06:35:56;;;;;;;7.20;4.78;;;11.50;99.90;;;;;;5006516;28;20140;-58
2023/04/19 06:38:21;;;;;;;5.93;4.10;;;11.60;99.30;;;;;;5006567;28;20505;-55
2023/04/19 06:40:47;;;;;;;5.18;3.88;;;11.70;98.50;;;;;;5004850;28;20615;-61
2023/04/19 06:43:13;;;;;;;9.10;4.45;;;12.00;98.20;;;;;;5006116;28;20069;-53
2023/04/19 06:45:38;;;;;;;6.90;4.25;;;12.10;97.20;;;;;;5006804;28;20034;-57
2023/04/19 06:48:04;;;;;;;7.50;4.50;;;12.20;96.50;;;;;;5006030;28;20129;-61
2023/04/19 06:50:30;;;;;;;5.97;4.05;;;12.40;96.20;;;;;;5006465;28;20042;-55
2023/04/19 06:52:56;;;;;;;6.07;4.50;;;12.40;95.50;;;;;;5005592;28;20042;-59
2023/04/19 06:55:22;;;;;;;5.93;4.13;;;12.40;95.20;;;;;;5006117;28;20557;-52
2023/04/19 06:57:47;;;;;;;7.40;4.32;;;12.40;95.20;;;;;;5006386;28;20096;-58
2023/04/19 07:00:13;;;;;;;7.57;4.50;;;12.40;95.10;;;;;;5005728;28;20046;-53
2023/04/19 07:02:39;;;;;;;9.25;4.65;;;12.30;95.00;;;;;;5006331;28;20038;-60
2023/04/19 07:05:06;;;;;;;5.30;4.07;;;12.50;95.20;;;;;;5005371;28;20126;-58
2023/04/19 07:07:32;;;;;;;6.63;4.00;;;12.60;94.80;;;;;;5006536;28;20653;-60
2023/04/19 07:09:58;;;;;;;6.20;3.90;;;12.50;94.80;;;;;;5006114;28;20081;-53
2023/04/19 07:12:23;;;;;;;5.80;4.00;;;12.60;94.60;;;;;;5005306;28;20034;-55
2023/04/19 07:14:55;;;;;;;5.40;3.10;;;12.70;94.20;;;;;;5006903;28;20125;-59
2023/04/19 07:17:21;;;;;;;6.97;3.95;;;12.60;94.60;;;;;;5006235;28;20428;-60
2023/04/19 07:19:47;;;;;;;5.65;3.78;;;12.60;94.60;;;;;;5005812;28;20045;-52
2023/04/19 07:22:13;;;;;;;4.70;2.78;;;12.90;94.80;;;;;;5006355;28;20037;-60
2023/04/19 07:24:40;;;;;;;6.65;2.97;;;13.00;93.60;;;;;;5005743;28;20045;-52
2023/04/19 07:27:06;;;;;;;4.03;2.70;;;12.80;93.10;;;;;;5005446;28;20555;-49
2023/04/19 07:29:36;;;;;;;5.80;2.60;;;12.80;93.10;;;;;;5006549;28;20503;-54
2023/04/19 07:32:02;;;;;;;4.35;2.88;;;12.70;92.60;;;;;;5005810;28;20081;-53
2023/04/19 07:34:27;;;;;;;5.60;2.75;;;12.70;91.80;;;;;;4988451;28;20045;-55
2023/04/19 07:36:53;;;;;;;3.28;1.92;;;12.70;92.20;;;;;;5006371;28;20065;-57
2023/04/19 07:39:19;;;;;;;5.40;2.75;;;12.90;91.80;;;;;;5006498;28;20059;-57
2023/04/19 07:41:45;;;;;;;9.75;2.70;;;12.90;91.70;;;;;;5004513;28;20577;-60
2023/04/19 07:44:12;;;;;;;3.67;2.35;;;12.90;91.60;;;;;;5005868;28;20041;-54
2023/04/19 07:46:38;;;;;;;4.00;2.17;;;13.00;91.50;;;;;;5006008;28;20389;-58
2023/04/19 07:49:04;;;;;;;5.05;2.45;;;12.90;90.70;;;;;;5005189;28;20420;-59
2023/04/19 07:51:30;;;;;;;4.35;2.30;;;12.90;90.80;;;;;;5005002;28;20053;-61
2023/04/19 07:53:56;;;;;;;3.88;2.38;;;13.10;90.50;;;;;;5005968;28;20065;-55
2023/04/19 07:56:21;;;;;;;7.00;2.00;;;13.00;90.10;;;;;;5005271;28;20046;-58
2023/04/19 07:58:47;;;;;;;4.15;1.92;;;13.00;89.90;;;;;;5005797;28;20370;-54
2023/04/19 08:01:13;;;;;;;4.43;1.98;;;12.90;89.80;;;;;;5005895;28;20072;-54
2023/04/19 08:03:39;;;;;;;3.08;2.15;;;12.90;90.10;;;;;;5005886;28;20052;-61
2023/04/19 08:06:07;;;;;;;3.50;2.08;;;13.00;90.70;;;;;;5004593;28;20357;-56
2023/04/19 08:08:33;;;;;;;4.72;2.17;;;13.30;90.80;;;;;;5005748;28;20062;-61
2023/04/19 08:11:01;;;;;;;3.15;1.80;;;13.40;90.40;;;;;;5004724;28;20127;-59
2023/04/19 08:13:27;;;;;;;3.60;1.92;;;13.30;90.00;;;;;;5004697;28;20050;-61
2023/04/19 08:15:52;;;;;;;4.10;1.90;;;13.40;90.20;;;;;;5005820;28;20077;-60
2023/04/19 08:18:18;;;;;;;3.58;1.80;;;13.50;89.30;;;;;;5005279;28;20661;-61
2023/04/19 08:20:45;;;;;;;4.90;1.95;;;13.70;89.70;;;;;;5004084;28;20045;-52
2023/04/19 08:23:11;;;;;;;2.85;1.50;;;13.70;89.40;;;;;;5005243;28;20100;-50
2023/04/19 08:25:37;;;;;;;3.47;1.40;;;13.60;87.00;;;;;;5004686;28;20053;-51
2023/04/19 08:28:03;;;;;;;2.95;2.13;;;13.50;89.30;;;;;;5005667;28;20045;-61
2023/04/19 08:30:29;;;;;;;2.63;1.65;;;13.60;89.60;;;;;;5003629;28;20142;-55
2023/04/19 08:32:55;;;;;;;2.72;1.58;;;13.60;87.90;;;;;;5005680;28;20771;-62
2023/04/19 08:35:21;;;;;;;3.45;1.70;;;13.70;87.60;;;;;;5004628;28;20045;-57
2023/04/19 08:37:48;;;;;;;2.70;1.45;;;13.70;88.40;;;;;;5004727;28;20041;-58
2023/04/19 08:40:15;;;;;;;3.17;1.45;;;13.90;88.20;;;;;;5005382;28;20811;-58
2023/04/19 08:42:41;;;;;;;3.35;1.85;;;13.90;87.70;;;;;;5004668;28;20064;-60
2023/04/19 08:45:08;;;;;;;2.67;1.33;;;13.90;89.10;;;;;;5004608;28;20042;-54
2023/04/19 08:47:35;;;;;;;2.42;1.30;;;13.80;84.40;;;;;;5005608;28;20125;-61
2023/04/19 08:50:05;;;;;;;3.40;1.35;;;13.80;85.70;;;;;;5005273;28;20054;-57
2023/04/19 08:52:35;;;;;;;4.28;1.70;;;13.90;87.10;;;;;;5005444;28;20061;-53
2023/04/19 08:55:03;;;;;;;3.42;1.50;;;13.90;85.60;;;;;;5005269;28;20046;-61
2023/04/19 08:57:33;;;;;;;2.10;1.42;;;14.00;84.90;;;;;;5002647;28;20053;-51
2023/04/19 09:00:00;;;;;;;3.28;1.63;;;14.00;82.90;;;;;;5003178;28;20053;-60
2023/04/19 09:02:26;;;;;;;3.45;2.10;;;14.10;84.50;;;;;;5005872;28;20049;-61
2023/04/19 09:04:52;;;;;;;2.70;1.33;;;14.20;86.20;;;;;;5009331;28;20056;-63
2023/04/19 09:07:25;;;;;;;4.53;1.60;;;14.30;86.20;;;;;;5008661;28;20058;-61
2023/04/19 09:10:08;;;;;;;2.92;1.30;;;14.30;83.70;;;;;;5007629;28;20057;-60
2023/04/19 09:12:35;;;;;;;4.50;1.80;;;14.30;80.90;;;;;;5007991;28;20524;-59
2023/04/19 09:15:03;;;;;;;2.72;1.45;;;14.20;82.20;;;;;;5008167;28;20429;-61
2023/04/19 09:17:32;;;;;;;2.25;1.38;;;14.20;81.60;;;;;;5007314;28;20057;-53
2023/04/19 09:19:58;;;;;;;3.30;1.17;;;14.30;82.90;;;;;;5008354;28;20045;-62
2023/04/19 09:22:24;;;;;;;3.08;1.55;;;14.40;84.40;;;;;;5008596;28;20381;-60
2023/04/19 09:24:51;;;;;;;2.80;1.35;;;14.40;83.60;;;;;;5008457;28;20053;-63
2023/04/19 09:27:28;;;;;;;3.58;1.50;;;14.50;79.90;;;;;;5007194;28;20091;-57
2023/04/19 09:29:59;;;;;;;3.13;1.60;;;14.60;79.60;;;;;;5008669;28;20402;-62
2023/04/19 09:32:26;;;;;;;5.40;1.70;;;14.60;80.40;;;;;;5008388;28;20054;-55
2023/04/19 09:34:59;;;;;;;5.45;1.30;;;14.80;82.10;;;;;;5008586;28;20104;-56
2023/04/19 09:37:25;;;;;;;2.72;1.40;;;14.90;79.60;;;;;;5009079;28;20037;-60
2023/04/19 09:39:52;;;;;;;2.50;1.40;;;14.80;79.10;;;;;;5008247;28;20129;-59
2023/04/19 09:42:19;;;;;;;2.30;1.08;;;14.80;78.10;;;;;;5007660;28;20080;-58
2023/04/19 09:45:00;;;;;;;3.13;1.23;;;14.80;79.60;;;;;;5007822;28;20049;-59
2023/04/19 09:47:28;;;;;;;3.85;1.60;;;14.90;78.40;;;;;;5008205;28;20042;-49
2023/04/19 09:50:23;;;;;;;1.77;1.10;;;15.00;81.70;;;;;;5007782;28;20057;-60
2023/04/19 09:52:51;;;;;;;3.78;1.20;;;15.00;77.90;;;;;;4991013;28;20050;-55
2023/04/19 09:55:18;;;;;;;4.07;1.10;;;15.20;80.30;;;;;;5007065;28;20099;-61
2023/04/19 09:57:43;;;;;;;2.13;1.00;;;15.20;80.00;;;;;;5008136;28;20073;-56
2023/04/19 10:00:12;;;;;;;4.20;1.08;;;15.10;80.70;;;;;;5007331;28;20617;-62
2023/04/19 10:02:40;;;;;;;2.17;1.10;;;15.20;82.10;;;;;;5007043;28;20060;-56
2023/04/19 10:05:08;;;;;;;2.38;1.15;;;15.40;79.80;;;;;;5006887;28;20050;-57
2023/04/19 10:07:36;;;;;;;5.13;1.33;;;15.50;81.20;;;;;;5007916;28;20129;-57
2023/04/19 10:10:02;;;;;;;2.88;1.17;;;15.60;81.90;;;;;;5007116;28;20508;-60
2023/04/19 10:12:30;;;;;;;1.50;0.98;;;15.60;81.10;;;;;;5007504;28;20056;-63
2023/04/19 10:14:59;;;;;;;4.47;1.50;;;15.70;81.40;;;;;;5007818;28;20121;-57
2023/04/19 10:17:25;;;;;;;3.30;1.02;;;15.80;81.90;;;;;;5006611;28;20034;-63
2023/04/19 10:20:00;;;;;;;1.92;0.90;;;15.80;79.80;;;;;;5006915;28;20056;-57
2023/04/19 10:22:26;;;;;;;4.70;1.38;;;15.80;79.50;;;;;;5006872;28;20042;-62
2023/04/19 10:25:15;;;;;;;1.63;1.20;;;15.70;80.20;;;;;;5006836;28;20046;-63
2023/04/19 10:27:45;;;;;;;1.75;0.80;;;15.70;76.00;;;;;;5004196;28;20060;-61
2023/04/19 10:30:19;;;;;;;4.18;1.00;;;15.60;78.90;;;;;;5006767;28;20060;-60
2023/04/19 10:32:51;;;;;;;1.92;1.17;;;15.40;78.30;;;;;;5007339;28;20050;-59
2023/04/19 10:35:18;;;;;;;3.65;0.93;;;15.50;81.80;;;;;;5006499;28;20042;-55
2023/04/19 10:38:02;;;;;;;3.38;1.20;;;15.60;77.50;;;;;;5007487;28;20046;-52
2023/04/19 10:41:02;;;;;;;1.48;1.08;;;15.60;77.40;;;;;;5006159;28;20057;-54
2023/04/19 10:43:38;;;;;;;3.78;1.38;;;15.70;78.40;;;;;;4988266;28;20058;-63
2023/04/19 10:46:12;;;;;;;4.32;1.08;;;15.80;79.10;;;;;;5004834;28;20056;-62
2023/04/19 10:49:05;;;;;;;3.40;1.13;;;15.90;80.40;;;;;;5007237;28;20034;-60
2023/04/19 10:51:41;;;;;;;4.00;1.00;;;15.90;78.40;;;;;;5000913;28;20296;-50
2023/04/19 10:54:31;;;;;;;3.53;1.38;;;15.90;78.90;;;;;;5006949;28;20623;-61
2023/04/19 10:57:00;;;;;;;2.50;1.38;;;16.00;78.20;;;;;;5006063;28;20621;-61
2023/04/19 10:59:28;;;;;;;2.53;1.50;;;16.00;79.90;;;;;;5006434;28;20050;-62
2023/04/19 11:02:02;;;;;;;2.67;1.50;;;16.10;80.70;;;;;;5005584;28;20040;-55
2023/04/19 11:04:31;;;;;;;2.15;1.42;;;16.20;80.30;;;;;;5006149;28;20428;-56
2023/04/19 11:07:05;;;;;;;2.65;1.73;;;16.20;79.10;;;;;;5006269;28;20049;-62
2023/04/19 11:09:40;;;;;;;2.58;1.70;;;16.10;79.80;;;;;;5005020;28;20053;-61
2023/04/19 11:12:13;;;;;;;4.28;1.80;;;16.10;79.10;;;;;;5004944;28;20080;-59
2023/04/19 11:14:41;;;;;;;4.47;1.85;;;16.10;80.30;;;;;;5006192;28;20625;-59
2023/04/19 11:17:35;;;;;;;2.47;1.70;;;16.20;81.50;;;;;;5004779;28;20034;-61
2023/04/19 11:20:07;;;;;;;3.67;1.55;;;16.10;78.50;;;;;;5002623;28;20413;-54
2023/04/19 11:22:38;;;;;;;3.33;1.98;;;16.10;81.00;;;;;;5007008;28;20053;-56
2023/04/19 11:25:11;;;;;;;3.80;1.77;;;16.10;81.00;;;;;;5005447;28;20388;-61
2023/04/19 11:27:38;;;;;;;5.35;2.28;;;16.10;79.60;;;;;;5006713;28;20177;-58
2023/04/19 11:30:04;;;;;;;3.33;1.80;;;16.10;79.90;;;;;;5006849;28;20046;-50
2023/04/19 11:32:31;;;;;;;2.85;1.35;;;16.00;81.20;;;;;;5005558;28;20397;-61
2023/04/19 11:34:57;;;;;;;4.20;2.08;;;16.00;78.90;;;;;;5005680;28;20045;-57
2023/04/19 11:37:22;;;;;;;2.90;1.83;;;15.80;80.00;;;;;;5006071;28;20034;-61
2023/04/19 11:39:48;;;;;;;5.10;2.22;;;15.80;80.90;;;;;;5005936;28;20515;-50
2023/04/19 11:42:18;;;;;;;4.60;1.83;;;15.90;80.40;;;;;;5004310;28;20071;-57
2023/04/19 11:44:49;;;;;;;5.07;2.47;;;15.90;78.50;;;;;;5005265;28;20077;-59
2023/04/19 11:47:15;;;;;;;3.35;2.10;;;16.00;82.10;;;;;;5004828;28;20124;-61
2023/04/19 11:49:40;;;;;;;3.17;1.95;;;16.00;83.80;;;;;;5004307;28;20168;-60
2023/04/19 11:52:06;;;;;;;5.70;2.90;;;16.00;82.60;;;;;;5005070;28;20374;-54
2023/04/19 11:54:32;;;;;;;6.75;2.35;;;16.20;83.50;;;;;;5005644;28;20049;-58
2023/04/19 11:57:07;;;;;;;5.00;2.03;;;16.30;85.20;;;;;;5003926;28;20050;-60
2023/04/19 11:59:35;;;;;;;3.75;2.13;;;16.30;82.60;;;;;;5005389;28;20037;-63
2023/04/19 12:02:11;;;;;;;3.92;2.15;;;16.10;83.90;;;;;;5005078;28;20060;-55
2023/04/19 12:04:37;;;;;;;3.00;1.92;;;16.10;83.30;;;;;;5002614;28;20053;-54
2023/04/19 12:07:05;;;;;;;3.88;2.15;;;16.00;84.50;;;;;;5003004;28;20058;-60
2023/04/19 12:09:35;;;;;;;4.80;1.80;;;16.00;82.30;;;;;;5002815;28;20582;-51
2023/04/19 12:12:02;;;;;;;6.00;2.65;;;15.80;81.50;;;;;;5001501;28;20416;-59
2023/04/19 12:14:29;;;;;;;3.90;2.20;;;15.80;84.10;;;;;;5003291;28;20168;-61
2023/04/19 12:17:10;;;;;;;5.47;2.60;;;15.90;85.10;;;;;;5003038;28;20046;-61
2023/04/19 12:19:41;;;;;;;2.92;2.05;;;16.00;84.40;;;;;;5003273;28;20460;-63
2023/04/19 12:22:08;;;;;;;3.47;1.85;;;16.20;84.00;;;;;;5003206;28;20096;-65
2023/04/19 12:24:34;;;;;;;4.45;2.28;;;16.20;83.00;;;;;;5002205;28;20050;-64
2023/04/19 12:27:00;;;;;;;4.25;1.80;;;16.10;83.40;;;;;;5002337;28;20061;-64
2023/04/19 12:29:26;;;;;;;2.92;2.08;;;15.90;82.90;;;;;;5002523;28;20046;-59
2023/04/19 12:31:51;;;;;;;6.68;2.40;;;15.80;83.80;;;;;;5002268;28;20045;-58
2023/04/19 12:34:17;;;;;;;3.60;2.33;;;15.70;84.80;;;;;;5002139;28;20038;-63
2023/04/19 12:36:43;;;;;;;4.10;2.17;;;15.90;85.30;;;;;;5003259;28;20559;-67
2023/04/19 12:39:08;;;;;;;4.60;2.40;;;15.90;85.40;;;;;;5007821;28;20050;-64
2023/04/19 12:41:34;;;;;;;3.58;2.40;;;16.00;85.50;;;;;;5007817;28;20142;-63
2023/04/19 12:44:00;;;;;;;5.82;2.00;;;16.00;85.60;;;;;;5006612;28;20083;-64
2023/04/19 12:46:26;;;;;;;6.47;2.33;;;15.70;82.50;;;;;;5006381;28;20045;-62